Terminal Aerodrome Forecast
Issued by NWS

Home | Current Version | Previous Version | Graphics & Text | Print | Product List | Glossary On
Versions: 1 2 3 4 5 6 7 8 9 10 11 12 13 14 15 16 17 18 19 20 21
000
FTUS42 KMHX 091100
TAFISO
TAF
KISO 091136Z 0912/1012 21006KT P6SM SKC
      TEMPO 0912/0913 5SM BR
     FM091400 22010G18KT P6SM SCT050
     FM092100 21010G18KT P6SM VCTS BKN040CB
     FM100100 20008KT P6SM SCT050
      AMD LTD TO CLD VIS AND WIND=

USA.gov is the U.S. government's official web portal to all federal, state and local government web resources and services.